sensor_id;sensor_type;location;lat;lon;timestamp;temperature;humidity
20057;DHT22;10189;49.546;7.906;2023-01-15T00:01:25;8.50;99.90
20057;DHT22;10189;49.546;7.906;2023-01-15T00:03:54;8.50;99.90
20057;DHT22;10189;49.546;7.906;2023-01-15T00:06:22;8.50;99.90
20057;DHT22;10189;49.546;7.906;2023-01-15T00:08:49;8.50;99.90
20057;DHT22;10189;49.546;7.906;2023-01-15T00:11:17;8.50;99.90
20057;DHT22;10189;49.546;7.906;2023-01-15T00:13:44;8.50;99.90
20057;DHT22;10189;49.546;7.906;2023-01-15T00:16:13;8.50;99.90
20057;DHT22;10189;49.546;7.906;2023-01-15T00:18:41;8.50;99.90
20057;DHT22;10189;49.546;7.906;2023-01-15T00:21:10;8.50;99.90
20057;DHT22;10189;49.546;7.906;2023-01-15T00:23:37;8.50;99.90
20057;DHT22;10189;49.546;7.906;2023-01-15T00:26:27;8.50;99.90
20057;DHT22;10189;49.546;7.906;2023-01-15T00:29:14;8.50;99.90
20057;DHT22;10189;49.546;7.906;2023-01-15T00:31:42;8.50;99.90
20057;DHT22;10189;49.546;7.906;2023-01-15T00:34:10;8.50;99.90
20057;DHT22;10189;49.546;7.906;2023-01-15T00:36:36;8.60;99.90
20057;DHT22;10189;49.546;7.906;2023-01-15T00:39:04;8.60;99.90
20057;DHT22;10189;49.546;7.906;2023-01-15T00:41:30;8.60;99.90
20057;DHT22;10189;49.546;7.906;2023-01-15T00:43:56;8.60;99.90
20057;DHT22;10189;49.546;7.906;2023-01-15T00:46:22;8.50;99.90
20057;DHT22;10189;49.546;7.906;2023-01-15T00:48:48;8.60;99.90
20057;DHT22;10189;49.546;7.906;2023-01-15T00:51:14;8.60;99.90
20057;DHT22;10189;49.546;7.906;2023-01-15T00:53:40;8.60;99.90
20057;DHT22;10189;49.546;7.906;2023-01-15T00:56:06;8.50;99.90
20057;DHT22;10189;49.546;7.906;2023-01-15T00:58:32;8.50;99.90
20057;DHT22;10189;49.546;7.906;2023-01-15T01:00:58;8.50;99.90
20057;DHT22;10189;49.546;7.906;2023-01-15T01:03:27;8.50;99.90
20057;DHT22;10189;49.546;7.906;2023-01-15T01:05:59;8.50;99.90
20057;DHT22;10189;49.546;7.906;2023-01-15T01:08:26;8.60;99.90
20057;DHT22;10189;49.546;7.906;2023-01-15T01:11:07;8.60;99.90
20057;DHT22;10189;49.546;7.906;2023-01-15T01:13:36;8.60;99.90
20057;DHT22;10189;49.546;7.906;2023-01-15T01:16:04;8.60;99.90
20057;DHT22;10189;49.546;7.906;2023-01-15T01:19:05;8.60;99.90
20057;DHT22;10189;49.546;7.906;2023-01-15T01:21:37;8.50;99.90
20057;DHT22;10189;49.546;7.906;2023-01-15T01:24:05;8.50;99.90
20057;DHT22;10189;49.546;7.906;2023-01-15T01:26:33;8.50;99.90
20057;DHT22;10189;49.546;7.906;2023-01-15T01:28:59;8.40;99.90
20057;DHT22;10189;49.546;7.906;2023-01-15T01:31:25;8.40;99.90
20057;DHT22;10189;49.546;7.906;2023-01-15T01:33:54;8.40;99.90
20057;DHT22;10189;49.546;7.906;2023-01-15T01:36:33;8.30;99.90
20057;DHT22;10189;49.546;7.906;2023-01-15T01:39:01;8.30;99.90
20057;DHT22;10189;49.546;7.906;2023-01-15T01:41:28;8.30;99.90
20057;DHT22;10189;49.546;7.906;2023-01-15T01:43:59;8.20;99.90
20057;DHT22;10189;49.546;7.906;2023-01-15T01:46:44;8.20;99.90
20057;DHT22;10189;49.546;7.906;2023-01-15T01:49:12;8.20;99.90
20057;DHT22;10189;49.546;7.906;2023-01-15T01:51:46;8.20;99.90
20057;DHT22;10189;49.546;7.906;2023-01-15T01:54:20;8.10;99.90
20057;DHT22;10189;49.546;7.906;2023-01-15T01:56:49;8.10;99.90
20057;DHT22;10189;49.546;7.906;2023-01-15T01:59:17;8.00;99.90
20057;DHT22;10189;49.546;7.906;2023-01-15T02:01:46;7.90;99.90
20057;DHT22;10189;49.546;7.906;2023-01-15T02:04:14;7.80;99.90
20057;DHT22;10189;49.546;7.906;2023-01-15T02:06:44;7.80;99.90
20057;DHT22;10189;49.546;7.906;2023-01-15T02:09:11;7.70;99.90
20057;DHT22;10189;49.546;7.906;2023-01-15T02:11:37;7.70;99.90
20057;DHT22;10189;49.546;7.906;2023-01-15T02:14:33;7.60;99.90
20057;DHT22;10189;49.546;7.906;2023-01-15T02:17:12;7.60;99.90
20057;DHT22;10189;49.546;7.906;2023-01-15T02:20:15;7.60;99.90
20057;DHT22;10189;49.546;7.906;2023-01-15T02:23:06;7.50;99.90
20057;DHT22;10189;49.546;7.906;2023-01-15T02:28:36;7.40;99.90
20057;DHT22;10189;49.546;7.906;2023-01-15T02:31:20;7.20;99.90
20057;DHT22;10189;49.546;7.906;2023-01-15T02:34:13;6.80;99.90
20057;DHT22;10189;49.546;7.906;2023-01-15T02:36:59;6.50;99.90
20057;DHT22;10189;49.546;7.906;2023-01-15T02:39:32;6.10;99.90
20057;DHT22;10189;49.546;7.906;2023-01-15T02:42:03;6.00;99.90
20057;DHT22;10189;49.546;7.906;2023-01-15T02:44:41;5.90;99.90
20057;DHT22;10189;49.546;7.906;2023-01-15T02:47:16;5.80;99.90
20057;DHT22;10189;49.546;7.906;2023-01-15T02:49:46;5.70;99.90
20057;DHT22;10189;49.546;7.906;2023-01-15T02:52:25;5.70;99.90
20057;DHT22;10189;49.546;7.906;2023-01-15T02:55:02;5.60;99.90
20057;DHT22;10189;49.546;7.906;2023-01-15T02:57:36;5.60;99.90
20057;DHT22;10189;49.546;7.906;2023-01-15T03:00:07;5.60;99.90
20057;DHT22;10189;49.546;7.906;2023-01-15T03:02:43;5.60;99.90
20057;DHT22;10189;49.546;7.906;2023-01-15T03:05:19;5.50;99.90
20057;DHT22;10189;49.546;7.906;2023-01-15T03:07:58;5.50;99.90
20057;DHT22;10189;49.546;7.906;2023-01-15T03:10:41;5.50;99.90
20057;DHT22;10189;49.546;7.906;2023-01-15T03:13:22;5.40;99.90
20057;DHT22;10189;49.546;7.906;2023-01-15T03:16:03;5.40;99.90
20057;DHT22;10189;49.546;7.906;2023-01-15T03:19:10;5.40;99.90
20057;DHT22;10189;49.546;7.906;2023-01-15T03:21:46;5.30;99.90
20057;DHT22;10189;49.546;7.906;2023-01-15T03:24:24;5.30;99.90
20057;DHT22;10189;49.546;7.906;2023-01-15T03:26:54;5.20;99.90
20057;DHT22;10189;49.546;7.906;2023-01-15T03:29:23;5.20;99.90
20057;DHT22;10189;49.546;7.906;2023-01-15T03:31:52;5.10;99.90
20057;DHT22;10189;49.546;7.906;2023-01-15T03:34:18;5.00;99.90
20057;DHT22;10189;49.546;7.906;2023-01-15T03:36:46;5.00;99.90
20057;DHT22;10189;49.546;7.906;2023-01-15T03:39:12;5.00;99.90
20057;DHT22;10189;49.546;7.906;2023-01-15T03:42:32;4.90;99.90
20057;DHT22;10189;49.546;7.906;2023-01-15T03:45:23;4.90;99.90
20057;DHT22;10189;49.546;7.906;2023-01-15T03:51:01;4.80;99.90
20057;DHT22;10189;49.546;7.906;2023-01-15T03:53:44;4.80;99.90
20057;DHT22;10189;49.546;7.906;2023-01-15T03:56:55;4.80;99.90
20057;DHT22;10189;49.546;7.906;2023-01-15T03:59:34;4.80;99.90
20057;DHT22;10189;49.546;7.906;2023-01-15T04:02:08;4.80;99.90
20057;DHT22;10189;49.546;7.906;2023-01-15T04:04:38;4.80;99.90
20057;DHT22;10189;49.546;7.906;2023-01-15T04:07:05;4.70;99.90
20057;DHT22;10189;49.546;7.906;2023-01-15T04:09:37;4.70;99.90
20057;DHT22;10189;49.546;7.906;2023-01-15T04:12:06;4.70;99.90
20057;DHT22;10189;49.546;7.906;2023-01-15T04:14:37;4.70;99.90
20057;DHT22;10189;49.546;7.906;2023-01-15T04:17:07;4.70;99.90
20057;DHT22;10189;49.546;7.906;2023-01-15T04:19:33;4.70;99.90
20057;DHT22;10189;49.546;7.906;2023-01-15T04:22:02;4.70;99.90
20057;DHT22;10189;49.546;7.906;2023-01-15T04:24:28;4.70;99.90
20057;DHT22;10189;49.546;7.906;2023-01-15T04:26:54;4.70;99.90
20057;DHT22;10189;49.546;7.906;2023-01-15T04:29:20;4.70;99.90
20057;DHT22;10189;49.546;7.906;2023-01-15T04:31:46;4.70;99.90
20057;DHT22;10189;49.546;7.906;2023-01-15T04:34:12;4.80;99.90
20057;DHT22;10189;49.546;7.906;2023-01-15T04:36:38;4.80;99.90
20057;DHT22;10189;49.546;7.906;2023-01-15T04:39:04;4.70;99.90
20057;DHT22;10189;49.546;7.906;2023-01-15T04:41:30;4.80;99.90
20057;DHT22;10189;49.546;7.906;2023-01-15T04:44:15;4.80;99.90
20057;DHT22;10189;49.546;7.906;2023-01-15T04:46:44;4.80;99.90
20057;DHT22;10189;49.546;7.906;2023-01-15T04:49:13;4.80;99.90
20057;DHT22;10189;49.546;7.906;2023-01-15T04:51:41;4.80;99.90
20057;DHT22;10189;49.546;7.906;2023-01-15T04:54:10;4.90;99.90
20057;DHT22;10189;49.546;7.906;2023-01-15T04:56:40;4.80;99.90
20057;DHT22;10189;49.546;7.906;2023-01-15T04:59:07;4.80;99.90
20057;DHT22;10189;49.546;7.906;2023-01-15T05:01:34;4.80;99.90
20057;DHT22;10189;49.546;7.906;2023-01-15T05:04:01;4.80;99.90
20057;DHT22;10189;49.546;7.906;2023-01-15T05:06:28;4.80;99.90
20057;DHT22;10189;49.546;7.906;2023-01-15T05:08:56;4.80;99.90
20057;DHT22;10189;49.546;7.906;2023-01-15T05:11:23;4.80;99.90
20057;DHT22;10189;49.546;7.906;2023-01-15T05:13:49;4.70;99.90
20057;DHT22;10189;49.546;7.906;2023-01-15T05:16:23;4.70;99.90
20057;DHT22;10189;49.546;7.906;2023-01-15T05:18:53;4.70;99.90
20057;DHT22;10189;49.546;7.906;2023-01-15T05:21:30;4.70;99.90
20057;DHT22;10189;49.546;7.906;2023-01-15T05:23:58;4.60;99.90
20057;DHT22;10189;49.546;7.906;2023-01-15T05:26:27;4.60;99.90
20057;DHT22;10189;49.546;7.906;2023-01-15T05:28:56;4.60;99.90
20057;DHT22;10189;49.546;7.906;2023-01-15T05:31:24;4.60;99.90
20057;DHT22;10189;49.546;7.906;2023-01-15T05:33:51;4.60;99.90
20057;DHT22;10189;49.546;7.906;2023-01-15T05:36:24;4.60;99.90
20057;DHT22;10189;49.546;7.906;2023-01-15T05:38:53;4.60;99.90
20057;DHT22;10189;49.546;7.906;2023-01-15T05:41:22;4.60;99.90
20057;DHT22;10189;49.546;7.906;2023-01-15T05:44:09;4.60;99.90
20057;DHT22;10189;49.546;7.906;2023-01-15T05:46:37;4.60;99.90
20057;DHT22;10189;49.546;7.906;2023-01-15T05:49:06;4.50;99.90
20057;DHT22;10189;49.546;7.906;2023-01-15T05:51:37;4.50;99.90
20057;DHT22;10189;49.546;7.906;2023-01-15T05:54:06;4.40;99.90
20057;DHT22;10189;49.546;7.906;2023-01-15T05:56:37;4.30;99.90
20057;DHT22;10189;49.546;7.906;2023-01-15T05:59:05;4.20;99.90
20057;DHT22;10189;49.546;7.906;2023-01-15T06:01:31;4.20;99.90
20057;DHT22;10189;49.546;7.906;2023-01-15T06:03:59;4.20;99.90
20057;DHT22;10189;49.546;7.906;2023-01-15T06:06:25;4.20;99.90
20057;DHT22;10189;49.546;7.906;2023-01-15T06:08:52;4.20;99.90
20057;DHT22;10189;49.546;7.906;2023-01-15T06:11:18;4.10;99.90
20057;DHT22;10189;49.546;7.906;2023-01-15T06:13:44;4.10;99.90
20057;DHT22;10189;49.546;7.906;2023-01-15T06:16:10;4.10;99.90
20057;DHT22;10189;49.546;7.906;2023-01-15T06:18:40;4.10;99.90
20057;DHT22;10189;49.546;7.906;2023-01-15T06:21:08;4.00;99.90
20057;DHT22;10189;49.546;7.906;2023-01-15T06:23:37;4.00;99.90
20057;DHT22;10189;49.546;7.906;2023-01-15T06:26:05;4.00;99.90
20057;DHT22;10189;49.546;7.906;2023-01-15T06:28:33;4.00;99.90
20057;DHT22;10189;49.546;7.906;2023-01-15T06:30:59;4.00;99.90
20057;DHT22;10189;49.546;7.906;2023-01-15T06:33:25;3.90;99.90
20057;DHT22;10189;49.546;7.906;2023-01-15T06:35:51;4.00;99.90
20057;DHT22;10189;49.546;7.906;2023-01-15T06:38:17;3.90;99.90
20057;DHT22;10189;49.546;7.906;2023-01-15T06:40:43;3.90;99.90
20057;DHT22;10189;49.546;7.906;2023-01-15T06:43:10;3.80;99.90
20057;DHT22;10189;49.546;7.906;2023-01-15T06:45:55;3.80;99.90
20057;DHT22;10189;49.546;7.906;2023-01-15T06:48:50;3.80;99.90
20057;DHT22;10189;49.546;7.906;2023-01-15T06:51:16;3.80;99.90
20057;DHT22;10189;49.546;7.906;2023-01-15T06:53:45;3.80;99.90
20057;DHT22;10189;49.546;7.906;2023-01-15T06:56:12;3.70;99.90
20057;DHT22;10189;49.546;7.906;2023-01-15T06:58:40;3.70;99.90
20057;DHT22;10189;49.546;7.906;2023-01-15T07:01:11;3.70;99.90
20057;DHT22;10189;49.546;7.906;2023-01-15T07:03:39;3.60;99.90
20057;DHT22;10189;49.546;7.906;2023-01-15T07:06:10;3.60;99.90
20057;DHT22;10189;49.546;7.906;2023-01-15T07:08:38;3.60;99.90
20057;DHT22;10189;49.546;7.906;2023-01-15T07:11:07;3.60;99.90
20057;DHT22;10189;49.546;7.906;2023-01-15T07:13:35;3.60;99.90
20057;DHT22;10189;49.546;7.906;2023-01-15T07:16:02;3.50;99.90
20057;DHT22;10189;49.546;7.906;2023-01-15T07:18:30;3.50;99.90
20057;DHT22;10189;49.546;7.906;2023-01-15T07:20:58;3.50;99.90
20057;DHT22;10189;49.546;7.906;2023-01-15T07:23:25;3.40;99.90
20057;DHT22;10189;49.546;7.906;2023-01-15T07:25:52;3.40;99.90
20057;DHT22;10189;49.546;7.906;2023-01-15T07:28:20;3.40;99.90
20057;DHT22;10189;49.546;7.906;2023-01-15T07:30:47;3.40;99.90
20057;DHT22;10189;49.546;7.906;2023-01-15T07:33:13;3.40;99.90
20057;DHT22;10189;49.546;7.906;2023-01-15T07:35:39;3.30;99.90
20057;DHT22;10189;49.546;7.906;2023-01-15T07:38:05;3.20;99.90
20057;DHT22;10189;49.546;7.906;2023-01-15T07:40:31;3.20;99.90
20057;DHT22;10189;49.546;7.906;2023-01-15T07:42:57;3.20;99.90
20057;DHT22;10189;49.546;7.906;2023-01-15T07:45:42;3.20;99.90
20057;DHT22;10189;49.546;7.906;2023-01-15T07:48:27;3.20;99.90
20057;DHT22;10189;49.546;7.906;2023-01-15T07:51:12;3.20;99.90
20057;DHT22;10189;49.546;7.906;2023-01-15T07:53:37;3.20;99.90
20057;DHT22;10189;49.546;7.906;2023-01-15T07:56:03;3.20;99.90
20057;DHT22;10189;49.546;7.906;2023-01-15T07:58:30;3.30;99.90
20057;DHT22;10189;49.546;7.906;2023-01-15T08:00:55;3.20;99.90
20057;DHT22;10189;49.546;7.906;2023-01-15T08:03:21;3.20;99.90
20057;DHT22;10189;49.546;7.906;2023-01-15T08:05:47;3.20;99.90
20057;DHT22;10189;49.546;7.906;2023-01-15T08:08:17;3.20;99.90
20057;DHT22;10189;49.546;7.906;2023-01-15T08:10:43;3.20;99.90
20057;DHT22;10189;49.546;7.906;2023-01-15T08:13:28;3.20;99.90
20057;DHT22;10189;49.546;7.906;2023-01-15T08:16:13;3.20;99.90
20057;DHT22;10189;49.546;7.906;2023-01-15T08:18:39;3.30;99.90
20057;DHT22;10189;49.546;7.906;2023-01-15T08:21:05;3.30;99.90
20057;DHT22;10189;49.546;7.906;2023-01-15T08:23:31;3.30;99.90
20057;DHT22;10189;49.546;7.906;2023-01-15T08:26:00;3.30;99.90
20057;DHT22;10189;49.546;7.906;2023-01-15T08:28:26;3.30;99.90
20057;DHT22;10189;49.546;7.906;2023-01-15T08:30:52;3.30;99.90
20057;DHT22;10189;49.546;7.906;2023-01-15T08:33:18;3.30;99.90
20057;DHT22;10189;49.546;7.906;2023-01-15T08:35:44;3.30;99.90
20057;DHT22;10189;49.546;7.906;2023-01-15T08:38:10;3.30;99.90
20057;DHT22;10189;49.546;7.906;2023-01-15T08:40:36;3.30;99.90
20057;DHT22;10189;49.546;7.906;2023-01-15T08:43:22;3.40;99.90
20057;DHT22;10189;49.546;7.906;2023-01-15T08:45:48;3.30;99.90
20057;DHT22;10189;49.546;7.906;2023-01-15T08:48:14;3.40;99.90
20057;DHT22;10189;49.546;7.906;2023-01-15T08:50:40;3.40;99.90
20057;DHT22;10189;49.546;7.906;2023-01-15T08:53:05;3.40;99.90
20057;DHT22;10189;49.546;7.906;2023-01-15T08:55:31;3.40;99.90
20057;DHT22;10189;49.546;7.906;2023-01-15T08:57:57;3.40;99.90
20057;DHT22;10189;49.546;7.906;2023-01-15T09:00:23;3.50;99.90
20057;DHT22;10189;49.546;7.906;2023-01-15T09:02:49;3.50;99.90
20057;DHT22;10189;49.546;7.906;2023-01-15T09:05:15;3.50;99.90
20057;DHT22;10189;49.546;7.906;2023-01-15T09:07:41;3.40;99.90
20057;DHT22;10189;49.546;7.906;2023-01-15T09:10:08;3.40;99.90
20057;DHT22;10189;49.546;7.906;2023-01-15T09:12:34;3.50;99.90
20057;DHT22;10189;49.546;7.906;2023-01-15T09:15:00;3.50;99.90
20057;DHT22;10189;49.546;7.906;2023-01-15T09:17:26;3.50;99.90
20057;DHT22;10189;49.546;7.906;2023-01-15T09:19:52;3.50;99.90
20057;DHT22;10189;49.546;7.906;2023-01-15T09:22:18;3.50;99.90
20057;DHT22;10189;49.546;7.906;2023-01-15T09:24:44;3.50;99.90
20057;DHT22;10189;49.546;7.906;2023-01-15T09:27:11;3.60;99.90
20057;DHT22;10189;49.546;7.906;2023-01-15T09:29:37;3.60;99.90
20057;DHT22;10189;49.546;7.906;2023-01-15T09:32:03;3.60;99.90
20057;DHT22;10189;49.546;7.906;2023-01-15T09:34:29;3.50;99.90
20057;DHT22;10189;49.546;7.906;2023-01-15T09:36:55;3.60;99.90
20057;DHT22;10189;49.546;7.906;2023-01-15T09:39:21;3.60;99.90
20057;DHT22;10189;49.546;7.906;2023-01-15T09:54:10;3.20;99.90
20057;DHT22;10189;49.546;7.906;2023-01-15T09:56:45;2.50;97.50
20057;DHT22;10189;49.546;7.906;2023-01-15T09:59:31;1.80;99.40
20057;DHT22;10189;49.546;7.906;2023-01-15T10:02:11;1.60;99.90
20057;DHT22;10189;49.546;7.906;2023-01-15T10:05:22;1.40;99.90
20057;DHT22;10189;49.546;7.906;2023-01-15T10:07:56;1.40;99.90
20057;DHT22;10189;49.546;7.906;2023-01-15T10:10:46;1.30;99.90
20057;DHT22;10189;49.546;7.906;2023-01-15T10:15:55;1.20;99.90
20057;DHT22;10189;49.546;7.906;2023-01-15T10:18:23;1.20;99.90
20057;DHT22;10189;49.546;7.906;2023-01-15T10:23:37;1.20;99.90
20057;DHT22;10189;49.546;7.906;2023-01-15T10:39:57;1.20;99.90
20057;DHT22;10189;49.546;7.906;2023-01-15T10:45:33;1.10;99.90
20057;DHT22;10189;49.546;7.906;2023-01-15T10:48:13;1.00;99.90
20057;DHT22;10189;49.546;7.906;2023-01-15T10:50:40;0.90;99.90
20057;DHT22;10189;49.546;7.906;2023-01-15T11:01:40;0.80;99.90
20057;DHT22;10189;49.546;7.906;2023-01-15T11:04:09;0.70;99.90
20057;DHT22;10189;49.546;7.906;2023-01-15T11:06:38;0.70;99.90
20057;DHT22;10189;49.546;7.906;2023-01-15T11:09:04;0.60;99.90
20057;DHT22;10189;49.546;7.906;2023-01-15T11:11:36;0.50;99.90
20057;DHT22;10189;49.546;7.906;2023-01-15T11:17:52;0.60;99.90
20057;DHT22;10189;49.546;7.906;2023-01-15T11:20:42;0.80;99.90
20057;DHT22;10189;49.546;7.906;2023-01-15T11:23:18;0.80;99.90
20057;DHT22;10189;49.546;7.906;2023-01-15T11:28:39;0.90;99.90
20057;DHT22;10189;49.546;7.906;2023-01-15T11:31:09;0.90;99.90
20057;DHT22;10189;49.546;7.906;2023-01-15T11:33:36;1.00;99.90
20057;DHT22;10189;49.546;7.906;2023-01-15T11:36:18;1.10;99.90
20057;DHT22;10189;49.546;7.906;2023-01-15T11:38:50;1.20;99.90
20057;DHT22;10189;49.546;7.906;2023-01-15T11:44:17;1.40;99.90
20057;DHT22;10189;49.546;7.906;2023-01-15T11:47:07;1.60;99.90
20057;DHT22;10189;49.546;7.906;2023-01-15T11:49:55;1.70;99.90
20057;DHT22;10189;49.546;7.906;2023-01-15T11:52:47;1.80;99.90
20057;DHT22;10189;49.546;7.906;2023-01-15T11:55:19;2.00;99.90
20057;DHT22;10189;49.546;7.906;2023-01-15T11:57:48;2.00;99.90
20057;DHT22;10189;49.546;7.906;2023-01-15T12:00:24;2.00;99.90
20057;DHT22;10189;49.546;7.906;2023-01-15T12:03:02;2.20;99.90
20057;DHT22;10189;49.546;7.906;2023-01-15T12:05:34;2.40;99.90
20057;DHT22;10189;49.546;7.906;2023-01-15T12:08:03;2.70;99.90
20057;DHT22;10189;49.546;7.906;2023-01-15T12:11:13;2.80;99.90
20057;DHT22;10189;49.546;7.906;2023-01-15T12:17:27;3.10;99.90
20057;DHT22;10189;49.546;7.906;2023-01-15T12:20:26;3.20;99.90
20057;DHT22;10189;49.546;7.906;2023-01-15T12:23:30;3.20;99.90
20057;DHT22;10189;49.546;7.906;2023-01-15T12:26:27;3.30;99.90
20057;DHT22;10189;49.546;7.906;2023-01-15T12:31:45;3.30;99.90
20057;DHT22;10189;49.546;7.906;2023-01-15T12:34:24;3.30;99.90
20057;DHT22;10189;49.546;7.906;2023-01-15T12:37:04;3.40;99.90
20057;DHT22;10189;49.546;7.906;2023-01-15T12:39:46;3.30;99.90
20057;DHT22;10189;49.546;7.906;2023-01-15T12:42:17;3.30;99.90
20057;DHT22;10189;49.546;7.906;2023-01-15T12:45:11;3.40;99.90
20057;DHT22;10189;49.546;7.906;2023-01-15T12:48:01;3.50;99.90
20057;DHT22;10189;49.546;7.906;2023-01-15T12:50:49;3.50;99.40
20057;DHT22;10189;49.546;7.906;2023-01-15T12:53:29;3.70;98.20
20057;DHT22;10189;49.546;7.906;2023-01-15T12:59:38;3.80;96.00
20057;DHT22;10189;49.546;7.906;2023-01-15T13:02:28;3.90;94.70
20057;DHT22;10189;49.546;7.906;2023-01-15T13:05:54;4.00;94.30
20057;DHT22;10189;49.546;7.906;2023-01-15T13:08:50;4.00;92.40
20057;DHT22;10189;49.546;7.906;2023-01-15T13:11:33;4.00;90.90
20057;DHT22;10189;49.546;7.906;2023-01-15T13:13:59;4.00;92.90
20057;DHT22;10189;49.546;7.906;2023-01-15T13:22:49;4.00;91.70
20057;DHT22;10189;49.546;7.906;2023-01-15T13:25:31;4.10;91.00
20057;DHT22;10189;49.546;7.906;2023-01-15T13:33:43;4.40;89.00
20057;DHT22;10189;49.546;7.906;2023-01-15T13:36:19;4.40;89.60
20057;DHT22;10189;49.546;7.906;2023-01-15T13:39:00;4.30;87.90
20057;DHT22;10189;49.546;7.906;2023-01-15T13:41:32;4.30;89.40
20057;DHT22;10189;49.546;7.906;2023-01-15T13:44:46;4.30;88.20
20057;DHT22;10189;49.546;7.906;2023-01-15T13:47:29;4.20;87.10
20057;DHT22;10189;49.546;7.906;2023-01-15T13:50:00;4.20;86.50
20057;DHT22;10189;49.546;7.906;2023-01-15T13:52:34;4.20;85.50
20057;DHT22;10189;49.546;7.906;2023-01-15T13:55:19;4.20;86.10
20057;DHT22;10189;49.546;7.906;2023-01-15T13:57:51;4.20;85.00
20057;DHT22;10189;49.546;7.906;2023-01-15T14:00:32;4.10;85.90
20057;DHT22;10189;49.546;7.906;2023-01-15T14:03:32;4.20;87.00
20057;DHT22;10189;49.546;7.906;2023-01-15T14:06:06;4.30;86.00
20057;DHT22;10189;49.546;7.906;2023-01-15T14:08:44;4.30;86.80
20057;DHT22;10189;49.546;7.906;2023-01-15T14:11:33;4.20;85.60
20057;DHT22;10189;49.546;7.906;2023-01-15T14:39:47;4.30;86.50
20057;DHT22;10189;49.546;7.906;2023-01-15T14:45:16;4.30;86.50
20057;DHT22;10189;49.546;7.906;2023-01-15T14:47:56;4.30;85.50
20057;DHT22;10189;49.546;7.906;2023-01-15T14:53:04;4.10;87.30
20057;DHT22;10189;49.546;7.906;2023-01-15T14:55:31;4.10;87.20
20057;DHT22;10189;49.546;7.906;2023-01-15T14:58:05;4.00;89.40
20057;DHT22;10189;49.546;7.906;2023-01-15T15:00:43;3.90;89.70
20057;DHT22;10189;49.546;7.906;2023-01-15T15:03:16;3.90;90.40
20057;DHT22;10189;49.546;7.906;2023-01-15T15:05:47;3.90;90.10
20057;DHT22;10189;49.546;7.906;2023-01-15T15:08:15;3.80;90.90
20057;DHT22;10189;49.546;7.906;2023-01-15T15:10:45;3.80;91.20
20057;DHT22;10189;49.546;7.906;2023-01-15T15:13:36;3.80;90.60
20057;DHT22;10189;49.546;7.906;2023-01-15T15:16:20;3.70;89.80
20057;DHT22;10189;49.546;7.906;2023-01-15T15:21:32;3.70;89.70
20057;DHT22;10189;49.546;7.906;2023-01-15T15:24:15;3.80;88.90
20057;DHT22;10189;49.546;7.906;2023-01-15T15:26:49;3.70;89.20
20057;DHT22;10189;49.546;7.906;2023-01-15T15:29:17;3.70;89.20
20057;DHT22;10189;49.546;7.906;2023-01-15T15:36:51;3.70;89.50
20057;DHT22;10189;49.546;7.906;2023-01-15T15:39:49;3.60;88.70
20057;DHT22;10189;49.546;7.906;2023-01-15T15:42:21;3.70;88.80
20057;DHT22;10189;49.546;7.906;2023-01-15T15:45:24;3.70;88.70
20057;DHT22;10189;49.546;7.906;2023-01-15T15:48:19;3.60;89.20
20057;DHT22;10189;49.546;7.906;2023-01-15T15:54:10;3.60;90.20
20057;DHT22;10189;49.546;7.906;2023-01-15T15:57:07;3.60;89.30
20057;DHT22;10189;49.546;7.906;2023-01-15T15:59:44;3.60;90.00
20057;DHT22;10189;49.546;7.906;2023-01-15T16:02:17;3.60;89.70
20057;DHT22;10189;49.546;7.906;2023-01-15T16:04:51;3.60;90.30
20057;DHT22;10189;49.546;7.906;2023-01-15T16:09:53;3.50;90.90
20057;DHT22;10189;49.546;7.906;2023-01-15T16:12:23;3.50;90.70
20057;DHT22;10189;49.546;7.906;2023-01-15T16:14:54;3.60;90.60
20057;DHT22;10189;49.546;7.906;2023-01-15T16:17:23;3.60;90.20
20057;DHT22;10189;49.546;7.906;2023-01-15T16:19:55;3.60;90.00
20057;DHT22;10189;49.546;7.906;2023-01-15T16:22:23;3.60;90.60
20057;DHT22;10189;49.546;7.906;2023-01-15T16:24:54;3.60;89.60
20057;DHT22;10189;49.546;7.906;2023-01-15T16:27:30;3.60;89.20
20057;DHT22;10189;49.546;7.906;2023-01-15T16:30:00;3.60;90.00
20057;DHT22;10189;49.546;7.906;2023-01-15T16:32:29;3.60;89.40
20057;DHT22;10189;49.546;7.906;2023-01-15T16:35:20;3.60;90.00
20057;DHT22;10189;49.546;7.906;2023-01-15T16:37:56;3.60;89.20
20057;DHT22;10189;49.546;7.906;2023-01-15T16:40:30;3.60;89.30
20057;DHT22;10189;49.546;7.906;2023-01-15T16:43:06;3.70;89.30
20057;DHT22;10189;49.546;7.906;2023-01-15T16:45:39;3.70;88.10
20057;DHT22;10189;49.546;7.906;2023-01-15T16:48:29;3.70;88.40
20057;DHT22;10189;49.546;7.906;2023-01-15T16:53:47;3.70;88.00
20057;DHT22;10189;49.546;7.906;2023-01-15T16:59:00;3.60;87.20
20057;DHT22;10189;49.546;7.906;2023-01-15T17:01:38;3.60;87.30
20057;DHT22;10189;49.546;7.906;2023-01-15T17:09:52;3.70;86.70
20057;DHT22;10189;49.546;7.906;2023-01-15T17:17:43;3.70;88.70
20057;DHT22;10189;49.546;7.906;2023-01-15T17:20:11;3.60;88.70
20057;DHT22;10189;49.546;7.906;2023-01-15T17:22:40;3.60;87.30
20057;DHT22;10189;49.546;7.906;2023-01-15T17:25:22;3.60;87.30
20057;DHT22;10189;49.546;7.906;2023-01-15T17:27:56;3.60;87.90
20057;DHT22;10189;49.546;7.906;2023-01-15T17:30:24;3.50;89.40
20057;DHT22;10189;49.546;7.906;2023-01-15T17:33:03;3.20;91.30
20057;DHT22;10189;49.546;7.906;2023-01-15T17:35:37;3.10;91.80
20057;DHT22;10189;49.546;7.906;2023-01-15T17:38:05;3.00;92.60
20057;DHT22;10189;49.546;7.906;2023-01-15T17:40:36;2.90;92.90
20057;DHT22;10189;49.546;7.906;2023-01-15T17:43:03;2.90;94.10
20057;DHT22;10189;49.546;7.906;2023-01-15T17:45:31;2.80;94.40
20057;DHT22;10189;49.546;7.906;2023-01-15T17:47:58;2.70;94.70
20057;DHT22;10189;49.546;7.906;2023-01-15T17:50:26;2.70;94.70
20057;DHT22;10189;49.546;7.906;2023-01-15T17:52:53;2.70;94.70
20057;DHT22;10189;49.546;7.906;2023-01-15T17:55:22;2.60;95.10
20057;DHT22;10189;49.546;7.906;2023-01-15T17:58:13;2.50;94.70
20057;DHT22;10189;49.546;7.906;2023-01-15T18:01:14;2.50;94.50
20057;DHT22;10189;49.546;7.906;2023-01-15T18:04:03;2.50;94.20
20057;DHT22;10189;49.546;7.906;2023-01-15T18:06:52;2.50;92.50
20057;DHT22;10189;49.546;7.906;2023-01-15T18:09:22;2.60;92.90
20057;DHT22;10189;49.546;7.906;2023-01-15T18:11:48;2.50;92.50
20057;DHT22;10189;49.546;7.906;2023-01-15T18:14:14;2.50;92.50
20057;DHT22;10189;49.546;7.906;2023-01-15T18:16:40;2.60;90.40
20057;DHT22;10189;49.546;7.906;2023-01-15T18:19:06;2.80;89.70
20057;DHT22;10189;49.546;7.906;2023-01-15T18:21:36;2.70;90.20
20057;DHT22;10189;49.546;7.906;2023-01-15T18:24:03;2.70;90.30
20057;DHT22;10189;49.546;7.906;2023-01-15T18:26:29;2.80;89.60
20057;DHT22;10189;49.546;7.906;2023-01-15T18:28:55;2.80;89.20
20057;DHT22;10189;49.546;7.906;2023-01-15T18:31:21;2.80;89.50
20057;DHT22;10189;49.546;7.906;2023-01-15T18:33:47;2.80;89.20
20057;DHT22;10189;49.546;7.906;2023-01-15T18:36:14;2.70;89.20
20057;DHT22;10189;49.546;7.906;2023-01-15T18:38:41;2.60;89.60
20057;DHT22;10189;49.546;7.906;2023-01-15T18:41:19;2.60;89.20
20057;DHT22;10189;49.546;7.906;2023-01-15T18:44:04;2.60;90.20
20057;DHT22;10189;49.546;7.906;2023-01-15T18:46:59;2.60;89.80